EKBI

Billund

Airport
ICAO code
EKBI
Summary
ICAO Region
EUR
ICAO Territory
Location

Billund,

Elevation
247 ft
Coordinates
55° 44' 25" N , 9° 9' 6" E
KCC
Metar
Observation
EKBI 032050Z AUTO 25001KT 2800 BCFG FEW007/// 09/09 Q1021
Station
Billund Lufthavn
Date/Time
2022-10-03 20:50:00
Wind direction
250°
Wind speed
01 kts
Lowest cloud amount
few clouds
Temperature
9°C
Dew point
9°C
Humidity
100%
QNH
1021 hPa
Weather condition
n/a

Description

Billund Airport located 1 nm northeast of Billund, Denmark.

Climatology

Temperate Marine climate/Oceanic climate (Köppen climate classification Cfb). Moderately cool summer and comparatively warm winter with a temperature range of only 14°C. Prevailing south-westerly winds from the Atlantic Ocean.

Runways

Designator Length Width Surface Rops
9/27 3100 45 ASP Yes/Yes

SKYbrary Partners:

Safety knowledge contributed by: